Time;durP1;ratioP1;P1;durP2;ratioP2;P2;SDS_P1;SDS_P2;PMS_P1;PMS_P2;Temp;Humidity;BMP_temperature;BMP_pressure;BME280_temperature;BME280_humidity;BME280_pressure;Samples;Min_cycle;Max_cycle;Signal;HPM_P1;HPM_P2
2021/05/20 00:02:11;;;;;;;3.85;2.00;;;;;;;17.50;50.92;98489.88;4993135;28;20034;-66
2021/05/20 00:04:37;;;;;;;9.35;2.72;;;;;;;17.40;51.29;98485.88;4975490;28;20033;-65
2021/05/20 00:07:03;;;;;;;7.78;2.55;;;;;;;17.58;50.98;98491.50;4993096;28;20042;-66
2021/05/20 00:09:30;;;;;;;4.45;2.70;;;;;;;17.67;50.71;98488.25;4992924;28;20034;-66
2021/05/20 00:11:56;;;;;;;9.73;2.63;;;;;;;17.82;50.39;98486.19;4974584;28;20053;-66
2021/05/20 00:14:22;;;;;;;4.53;2.38;;;;;;;17.92;50.35;98493.03;4992986;28;20034;-66
2021/05/20 00:16:47;;;;;;;8.90;2.80;;;;;;;18.02;50.22;98491.38;4992746;28;20034;-66
2021/05/20 00:19:13;;;;;;;15.32;3.17;;;;;;;18.15;49.81;98484.06;4992860;28;20033;-71
2021/05/20 00:21:38;;;;;;;9.10;3.20;;;;;;;18.12;49.83;98482.06;4992782;28;20449;-71
2021/05/20 00:24:04;;;;;;;3.38;3.08;;;;;;;18.18;49.34;98477.59;4992748;28;20651;-71
2021/05/20 00:26:32;;;;;;;4.93;2.72;;;;;;;18.27;48.77;98477.16;4992661;28;20069;-66
2021/05/20 00:28:57;;;;;;;5.45;2.50;;;;;;;18.28;48.36;98480.78;4992541;28;20058;-66
2021/05/20 00:31:23;;;;;;;4.15;2.30;;;;;;;18.33;48.45;98483.19;4993084;28;20058;-66
2021/05/20 00:33:48;;;;;;;6.13;2.67;;;;;;;18.41;48.04;98466.97;4992519;28;20042;-71
2021/05/20 00:36:14;;;;;;;5.35;2.60;;;;;;;18.47;47.55;98474.63;4993008;28;20428;-66
2021/05/20 00:38:39;;;;;;;4.68;2.08;;;;;;;18.53;47.77;98480.66;4992528;28;20057;-66
2021/05/20 00:41:05;;;;;;;5.53;2.25;;;;;;;18.57;47.43;98487.09;4992733;28;20074;-66
2021/05/20 00:43:30;;;;;;;13.27;2.38;;;;;;;18.66;47.38;98495.94;4992471;28;20046;-71
2021/05/20 00:45:59;;;;;;;4.85;2.05;;;;;;;18.75;47.00;98486.19;4992220;28;20031;-71
2021/05/20 00:48:25;;;;;;;8.70;2.38;;;;;;;18.69;47.02;98487.84;4974504;28;20026;-71
2021/05/20 00:50:50;;;;;;;3.75;2.22;;;;;;;18.63;47.24;98478.97;4974729;28;20045;-71
2021/05/20 00:53:16;;;;;;;3.63;2.05;;;;;;;18.67;47.24;98486.22;4992294;28;20034;-71
2021/05/20 00:55:42;;;;;;;3.55;1.83;;;;;;;18.55;47.43;98483.09;4992457;28;20037;-71
2021/05/20 00:58:09;;;;;;;8.77;2.75;;;;;;;18.25;48.18;98482.44;4991938;28;20408;-71
2021/05/20 01:00:36;;;;;;;8.85;3.08;;;;;;;18.15;48.70;98475.56;4992527;28;20038;-71
2021/05/20 01:03:02;;;;;;;4.38;2.17;;;;;;;18.21;48.75;98484.44;4990741;28;20529;-70
2021/05/20 01:05:28;;;;;;;6.45;2.95;;;;;;;18.28;48.95;98475.94;4991711;28;20666;-71
2021/05/20 01:07:54;;;;;;;6.05;2.15;;;;;;;18.39;48.61;98481.53;4993761;28;20079;-71
2021/05/20 01:10:21;;;;;;;3.53;2.20;;;;;;;18.47;48.36;98460.47;5011403;28;20112;-71
2021/05/20 01:12:46;;;;;;;4.53;2.65;;;;;;;18.54;47.73;98468.09;4993708;28;20030;-66
2021/05/20 01:15:26;;;;;;;6.30;1.88;;;;;;;18.49;47.80;98477.06;4993686;28;20045;-71
2021/05/20 01:17:57;;;;;;;5.70;2.53;;;;;;;18.59;47.38;98483.84;5011451;28;20018;-71
2021/05/20 01:20:31;;;;;;;5.93;2.47;;;;;;;18.61;47.22;98479.41;5011183;28;20038;-66
2021/05/20 01:23:08;;;;;;;4.50;1.92;;;;;;;18.54;47.12;98470.16;5011463;28;20041;-66
2021/05/20 01:25:35;;;;;;;3.28;1.70;;;;;;;18.52;47.21;98467.72;5008408;28;20470;-71
2021/05/20 01:28:04;;;;;;;7.75;1.80;;;;;;;18.52;47.26;98462.06;4974858;28;20109;-66
2021/05/20 01:30:34;;;;;;;8.27;2.40;;;;;;;18.57;47.15;98466.47;5004396;28;20037;-71
2021/05/20 01:33:00;;;;;;;8.10;1.77;;;;;;;18.51;47.20;98466.13;5011163;28;20105;-66
2021/05/20 01:35:25;;;;;;;4.95;1.85;;;;;;;18.47;47.29;98471.00;5011356;28;20095;-70
2021/05/20 01:38:10;;;;;;;5.90;1.90;;;;;;;18.34;47.56;98468.63;4993317;28;20054;-71
2021/05/20 01:40:36;;;;;;;6.65;3.00;;;;;;;18.37;47.67;98467.00;5010758;28;20045;-71
2021/05/20 01:43:02;;;;;;;4.07;1.55;;;;;;;18.31;47.59;98460.16;5010975;28;20073;-71
2021/05/20 01:45:27;;;;;;;3.15;1.48;;;;;;;18.31;47.90;98457.34;5011181;28;20077;-71
2021/05/20 01:47:52;;;;;;;2.88;1.77;;;;;;;18.28;47.92;98456.13;5010764;28;20037;-71
2021/05/20 01:50:21;;;;;;;3.22;1.70;;;;;;;18.24;47.90;98453.31;4993394;28;20041;-66
2021/05/20 01:52:47;;;;;;;10.00;2.65;;;;;;;18.05;48.43;98454.63;5010640;28;20026;-66
2021/05/20 01:55:12;;;;;;;7.30;2.38;;;;;;;17.81;48.96;98454.28;5011118;28;20068;-71
2021/05/20 01:57:38;;;;;;;6.43;2.35;;;;;;;17.83;49.06;98446.19;5011108;28;20029;-71
2021/05/20 02:00:04;;;;;;;3.63;1.85;;;;;;;17.78;48.85;98449.44;5009966;28;20042;-70
2021/05/20 02:02:29;;;;;;;8.68;2.30;;;;;;;17.76;49.03;98453.88;4993363;28;20034;-67
2021/05/20 02:04:55;;;;;;;7.55;2.45;;;;;;;17.63;49.40;98447.88;5011246;28;20037;-65
2021/05/20 02:07:20;;;;;;;6.03;2.20;;;;;;;17.63;49.19;98447.88;4993153;28;20120;-73
2021/05/20 02:09:46;;;;;;;3.45;2.47;;;;;;;17.61;49.39;98433.31;5010535;28;20062;-69
2021/05/20 02:12:11;;;;;;;4.55;2.40;;;;;;;17.51;49.50;98434.97;4992773;28;20029;-68
2021/05/20 02:14:37;;;;;;;7.25;2.08;;;;;;;17.55;49.41;98441.41;5010463;28;20037;-69
2021/05/20 02:17:02;;;;;;;6.70;2.15;;;;;;;17.56;49.58;98439.41;5010459;28;20553;-68
2021/05/20 02:19:27;;;;;;;9.23;2.80;;;;;;;17.52;49.69;98443.06;5010640;28;20037;-73
2021/05/20 02:21:53;;;;;;;8.75;2.45;;;;;;;17.43;49.53;98434.19;5010202;28;20018;-68
2021/05/20 02:24:18;;;;;;;5.85;2.10;;;;;;;17.32;49.90;98437.03;4992878;28;20018;-68
2021/05/20 02:26:44;;;;;;;8.90;2.58;;;;;;;17.33;49.70;98432.19;5010273;28;20518;-73
2021/05/20 02:29:09;;;;;;;6.50;2.13;;;;;;;17.44;49.25;98432.19;4992707;28;20038;-73
2021/05/20 02:31:35;;;;;;;8.05;2.30;;;;;;;17.50;49.10;98445.47;5010369;28;20030;-71
2021/05/20 02:34:01;;;;;;;14.50;2.63;;;;;;;17.46;49.00;98450.31;4992571;28;20022;-71
2021/05/20 02:36:26;;;;;;;6.97;2.13;;;;;;;17.40;49.41;98447.09;5010735;28;20038;-71
2021/05/20 02:38:52;;;;;;;7.95;2.63;;;;;;;17.48;48.66;98449.91;5010089;28;20037;-71
2021/05/20 02:41:17;;;;;;;9.98;2.03;;;;;;;17.46;49.08;98443.88;4992775;28;20092;-66
2021/05/20 02:43:43;;;;;;;6.45;1.95;;;;;;;17.48;48.84;98450.72;5010029;28;20049;-66
2021/05/20 02:46:08;;;;;;;6.00;2.17;;;;;;;17.48;48.60;98450.72;5010517;28;20034;-67
2021/05/20 02:48:34;;;;;;;5.68;2.33;;;;;;;17.44;48.54;98460.44;5010456;28;20030;-71
2021/05/20 02:50:59;;;;;;;5.55;1.70;;;;;;;17.46;48.76;98472.13;4992429;28;20034;-71
2021/05/20 02:53:25;;;;;;;4.28;2.42;;;;;;;17.36;49.01;98477.41;5010172;28;20030;-71
2021/05/20 02:55:50;;;;;;;7.05;2.25;;;;;;;17.43;49.17;98472.94;5010315;28;20462;-67
2021/05/20 02:58:18;;;;;;;5.50;2.03;;;;;;;17.52;48.76;98471.31;5010086;28;20022;-66
2021/05/20 03:00:46;;;;;;;5.78;2.30;;;;;;;17.58;48.60;98480.19;5010297;28;20117;-71
2021/05/20 03:03:13;;;;;;;5.50;1.83;;;;;;;17.66;48.59;98476.13;4992473;28;20022;-72
2021/05/20 03:05:38;;;;;;;7.65;2.50;;;;;;;17.77;48.18;98476.09;5009705;28;20053;-67
2021/05/20 03:08:03;;;;;;;4.30;2.55;;;;;;;17.81;47.98;98476.91;5010121;28;20487;-66
2021/05/20 03:10:29;;;;;;;2.90;1.80;;;;;;;17.87;48.04;98468.78;5010785;28;20026;-67
2021/05/20 03:12:55;;;;;;;4.72;2.30;;;;;;;17.89;47.98;98477.66;4995832;28;20045;-71
2021/05/20 03:15:21;;;;;;;8.10;2.40;;;;;;;17.92;48.29;98474.03;4996144;28;20450;-71
2021/05/20 03:17:46;;;;;;;8.25;3.78;;;;;;;17.96;48.02;98471.19;5013683;28;20046;-70
2021/05/20 03:20:13;;;;;;;11.40;2.55;;;;;;;17.97;48.00;98467.13;5013508;28;20100;-67
2021/05/20 03:22:39;;;;;;;8.32;1.92;;;;;;;17.95;48.16;98469.56;5013624;28;20120;-71
2021/05/20 03:25:05;;;;;;;7.95;1.90;;;;;;;17.95;48.29;98476.06;5013418;28;20112;-66
2021/05/20 03:27:30;;;;;;;7.30;2.42;;;;;;;18.00;48.16;98459.84;5013877;28;20057;-70
2021/05/20 03:29:56;;;;;;;4.25;1.80;;;;;;;17.98;48.14;98459.47;4995565;28;20038;-71
2021/05/20 03:32:21;;;;;;;3.63;1.60;;;;;;;18.01;48.39;98459.47;5009698;28;20440;-71
2021/05/20 03:34:47;;;;;;;5.20;1.58;;;;;;;17.98;48.69;98453.81;4984846;28;20121;-66
2021/05/20 03:37:12;;;;;;;9.70;2.22;;;;;;;17.98;48.47;98456.63;5001278;28;20036;-66
2021/05/20 03:39:38;;;;;;;9.98;2.33;;;;;;;17.91;48.63;98463.91;4989255;28;20684;-67
2021/05/20 03:42:04;;;;;;;4.03;1.90;;;;;;;17.87;48.77;98462.34;4978217;28;20030;-67
2021/05/20 03:44:30;;;;;;;10.00;2.00;;;;;;;17.72;49.24;98470.84;4986122;28;20097;-67
2021/05/20 03:46:56;;;;;;;5.95;2.00;;;;;;;17.69;48.97;98474.50;4997246;28;20028;-67
2021/05/20 03:49:21;;;;;;;4.93;1.70;;;;;;;17.71;49.08;98483.38;5000486;28;20427;-67
2021/05/20 03:51:47;;;;;;;3.80;1.80;;;;;;;17.74;48.91;98485.41;4997048;28;20030;-67
2021/05/20 03:54:13;;;;;;;11.00;2.20;;;;;;;17.77;49.08;98490.25;5000730;28;20022;-71
2021/05/20 03:56:38;;;;;;;8.10;2.30;;;;;;;17.78;49.13;98482.56;5004642;28;20113;-76
2021/05/20 03:59:04;;;;;;;6.85;2.13;;;;;;;17.57;49.49;98484.25;5002864;28;20125;-75
2021/05/20 04:01:29;;;;;;;5.75;1.77;;;;;;;17.73;49.63;98494.28;5006987;28;20052;-71
2021/05/20 04:03:55;;;;;;;13.15;2.10;;;;;;;17.78;49.35;98500.34;5000901;28;20022;-77
2021/05/20 04:06:20;;;;;;;7.20;1.95;;;;;;;17.85;49.30;98498.69;5001030;28;20047;-74
2021/05/20 04:08:46;;;;;;;7.50;1.60;;;;;;;17.90;49.20;98509.59;4993034;28;20026;-73
2021/05/20 04:11:11;;;;;;;5.88;1.65;;;;;;;17.95;48.66;98510.00;4993310;28;20101;-75
2021/05/20 04:13:39;;;;;;;6.25;1.70;;;;;;;17.99;48.71;98521.31;4993124;28;20027;-72
2021/05/20 04:16:06;;;;;;;8.70;2.60;;;;;;;18.05;48.63;98518.91;4991838;28;20034;-71
2021/05/20 04:18:32;;;;;;;11.55;2.20;;;;;;;18.11;48.84;98528.56;4992763;28;20408;-71
2021/05/20 04:20:58;;;;;;;9.10;2.88;;;;;;;18.17;48.88;98541.09;4991715;28;20030;-71
2021/05/20 04:23:25;;;;;;;6.55;2.10;;;;;;;18.21;49.09;98549.53;4990576;28;20069;-63
2021/05/20 04:25:51;;;;;;;9.98;2.08;;;;;;;18.26;49.17;98563.28;4986385;28;20030;-63
2021/05/20 04:28:17;;;;;;;9.75;2.70;;;;;;;18.27;49.09;98559.22;4975862;28;20029;-65
2021/05/20 04:30:44;;;;;;;15.95;2.22;;;;;;;18.14;48.77;98567.34;4976140;28;20034;-66
2021/05/20 04:33:09;;;;;;;9.95;1.90;;;;;;;17.70;49.62;98551.66;4974510;28;20077;-67
2021/05/20 04:35:35;;;;;;;9.00;2.53;;;;;;;17.39;50.54;98552.09;4977840;28;20039;-72
2021/05/20 04:38:03;;;;;;;12.95;2.40;;;;;;;17.18;51.39;98553.69;4973361;28;20030;-71
2021/05/20 04:40:29;;;;;;;7.60;2.20;;;;;;;17.14;51.46;98555.72;4956074;28;20038;-71
2021/05/20 04:42:54;;;;;;;20.83;3.33;;;;;;;17.08;51.74;98568.63;4980052;28;20026;-71
2021/05/20 04:45:21;;;;;;;13.50;3.03;;;;;;;16.78;52.78;98564.09;4992387;28;20408;-73
2021/05/20 04:47:46;;;;;;;13.25;3.28;;;;;;;16.86;53.00;98562.88;4980363;28;20496;-66
2021/05/20 04:50:13;;;;;;;10.38;3.00;;;;;;;16.84;53.27;98568.13;4992469;28;20037;-66
2021/05/20 04:52:40;;;;;;;14.35;3.33;;;;;;;16.82;52.87;98564.91;4992202;28;20109;-73
2021/05/20 04:55:06;;;;;;;17.13;3.85;;;;;;;16.82;53.38;98562.09;4992209;28;20034;-66
2021/05/20 04:57:32;;;;;;;9.07;2.42;;;;;;;16.79;53.62;98566.50;4992027;28;20018;-71
2021/05/20 04:59:57;;;;;;;14.82;3.55;;;;;;;16.72;54.25;98580.63;4991947;28;20092;-72
2021/05/20 05:02:23;;;;;;;30.65;4.85;;;;;;;16.69;54.58;98584.22;4992251;28;20061;-67
2021/05/20 05:04:48;;;;;;;18.38;4.43;;;;;;;16.72;54.52;98588.25;4979661;28;20034;-72
2021/05/20 05:07:13;;;;;;;27.60;5.40;;;;;;;16.76;54.39;98594.72;4978868;28;20070;-72
2021/05/20 05:09:39;;;;;;;25.52;5.28;;;;;;;16.68;54.05;98585.44;5003644;28;20061;-66
2021/05/20 05:12:05;;;;;;;38.15;4.72;;;;;;;16.66;54.20;98580.19;5004248;28;20033;-66
2021/05/20 05:14:30;;;;;;;11.07;2.90;;;;;;;16.56;54.22;98569.66;5011542;28;20041;-66
2021/05/20 05:16:56;;;;;;;21.80;4.18;;;;;;;16.61;53.28;98563.63;5011283;28;20025;-66
2021/05/20 05:19:21;;;;;;;13.40;2.42;;;;;;;16.57;54.19;98565.63;5011343;28;20041;-66
2021/05/20 05:21:47;;;;;;;11.48;2.38;;;;;;;16.61;53.14;98571.31;4993641;28;20064;-74
2021/05/20 05:24:12;;;;;;;9.35;2.50;;;;;;;16.84;53.29;98566.13;5011301;28;20026;-66
2021/05/20 05:26:38;;;;;;;10.48;3.65;;;;;;;16.92;52.95;98566.94;5011149;28;20052;-65
2021/05/20 05:29:04;;;;;;;14.98;5.85;;;;;;;17.05;52.20;98577.91;4986813;28;20045;-72
2021/05/20 05:31:32;;;;;;;12.50;4.05;;;;;;;17.23;51.55;98578.72;4987199;28;20061;-75
2021/05/20 05:33:57;;;;;;;10.75;2.03;;;;;;;17.29;51.72;98572.69;4993284;28;20109;-75
2021/05/20 05:36:24;;;;;;;16.65;3.28;;;;;;;17.37;51.31;98571.44;4993653;28;20042;-73
2021/05/20 05:38:49;;;;;;;33.15;4.07;;;;;;;17.48;51.21;98566.59;5010784;28;20382;-77
2021/05/20 05:41:15;;;;;;;33.60;4.57;;;;;;;17.39;49.60;98555.72;4993203;28;20026;-74
2021/05/20 05:43:42;;;;;;;10.48;1.73;;;;;;;17.44;49.84;98560.16;5010880;28;20033;-75
2021/05/20 05:46:07;;;;;;;8.02;2.15;;;;;;;17.51;49.16;98560.16;5011402;28;20113;-71
2021/05/20 05:48:33;;;;;;;5.20;2.40;;;;;;;17.37;48.53;98565.78;4993281;28;20121;-71
2021/05/20 05:50:58;;;;;;;16.55;2.95;;;;;;;17.47;48.43;98564.19;5010948;28;20080;-71
2021/05/20 05:53:25;;;;;;;11.95;1.98;;;;;;;17.43;48.07;98558.53;5010885;28;20103;-70
2021/05/20 05:55:51;;;;;;;34.30;3.95;;;;;;;17.53;48.30;98563.38;4992881;28;20022;-70
2021/05/20 05:58:18;;;;;;;6.63;2.13;;;;;;;17.31;48.27;98568.22;5010723;28;20018;-70
2021/05/20 06:00:44;;;;;;;11.07;2.13;;;;;;;17.34;49.06;98563.78;5010212;28;20475;-69
2021/05/20 06:03:10;;;;;;;3.22;1.77;;;;;;;17.36;48.65;98567.00;5010555;28;20056;-69
2021/05/20 06:05:36;;;;;;;4.88;1.40;;;;;;;17.41;49.50;98563.81;5010422;28;20042;-69
2021/05/20 06:08:01;;;;;;;3.33;1.75;;;;;;;17.42;49.91;98562.59;5010432;28;20022;-69
2021/05/20 06:10:27;;;;;;;13.27;2.08;;;;;;;17.41;50.02;98560.97;5010908;28;20034;-69
2021/05/20 06:12:52;;;;;;;7.90;1.75;;;;;;;17.45;49.00;98567.41;5010539;28;20030;-69
2021/05/20 06:15:18;;;;;;;10.77;2.33;;;;;;;17.54;48.63;98565.00;5004430;28;20034;-69
2021/05/20 06:17:43;;;;;;;12.52;1.88;;;;;;;17.64;48.82;98565.41;4981333;28;20033;-68
2021/05/20 06:20:09;;;;;;;17.45;3.10;;;;;;;17.61;48.73;98577.50;5002575;28;20049;-69
2021/05/20 06:22:36;;;;;;;5.45;1.90;;;;;;;17.52;48.46;98573.09;4981679;28;20030;-72
2021/05/20 06:25:03;;;;;;;6.82;1.98;;;;;;;17.58;48.58;98583.97;5000593;28;20078;-73
2021/05/20 06:27:29;;;;;;;16.35;2.03;;;;;;;17.57;48.73;98588.03;5004902;28;20034;-73
2021/05/20 06:29:56;;;;;;;3.67;2.03;;;;;;;17.54;49.93;98583.97;4980981;28;20157;-78
2021/05/20 06:32:22;;;;;;;18.08;2.55;;;;;;;17.54;49.62;98598.94;5004913;28;20034;-77
2021/05/20 06:34:48;;;;;;;7.30;1.40;;;;;;;17.47;48.75;98586.81;4982095;28;20546;-77
2021/05/20 06:37:14;;;;;;;7.10;1.92;;;;;;;17.48;47.96;98594.88;5001557;28;20060;-73
2021/05/20 06:39:43;;;;;;;5.18;2.05;;;;;;;17.56;47.84;98600.53;4982819;28;20084;-72
2021/05/20 06:42:10;;;;;;;6.25;1.58;;;;;;;17.63;46.93;98600.56;4983034;28;20026;-74
2021/05/20 06:44:37;;;;;;;11.35;2.97;;;;;;;17.60;47.23;98604.16;4981605;28;20043;-75
2021/05/20 06:47:02;;;;;;;14.25;3.78;;;;;;;17.63;47.32;98592.06;4984678;28;20026;-73
2021/05/20 06:49:29;;;;;;;8.27;1.98;;;;;;;17.77;48.08;98600.53;5004799;28;20394;-72
2021/05/20 06:51:55;;;;;;;3.40;1.10;;;;;;;17.93;48.10;98607.78;4984420;28;20088;-73
2021/05/20 06:54:21;;;;;;;4.03;1.30;;;;;;;18.17;48.02;98602.53;4982825;28;20029;-74
2021/05/20 06:56:49;;;;;;;3.38;1.77;;;;;;;18.23;48.16;98615.06;4984079;28;20101;-73
2021/05/20 07:01:58;;;;;;;10.35;3.20;;;;;;;18.06;49.77;98594.84;5001914;28;20089;-72
2021/05/20 07:04:24;;;;;;;4.38;1.70;;;;;;;18.12;50.03;98586.75;5004810;28;20021;-73
2021/05/20 07:06:49;;;;;;;5.80;2.65;;;;;;;18.29;49.54;98590.75;5002720;28;20046;-72
2021/05/20 07:09:15;;;;;;;10.30;4.57;;;;;;;18.58;49.35;98582.19;4987659;28;20041;-73
2021/05/20 07:11:42;;;;;;;7.80;2.58;;;;;;;18.55;48.44;98574.47;5006450;28;20060;-73
2021/05/20 07:14:08;;;;;;;6.82;3.38;;;;;;;18.74;47.32;98570.34;4995943;28;20156;-73
2021/05/20 07:16:34;;;;;;;5.65;1.77;;;;;;;18.85;47.71;98577.97;4996096;28;20041;-75
2021/05/20 07:18:59;;;;;;;1.45;1.33;;;;;;;18.81;47.02;98575.16;5013646;28;20537;-73
2021/05/20 07:21:27;;;;;;;5.15;2.55;;;;;;;18.94;46.79;98584.00;5013851;28;20037;-72
2021/05/20 07:23:53;;;;;;;5.30;1.90;;;;;;;18.78;47.35;98576.00;4995942;28;20081;-73
2021/05/20 07:26:18;;;;;;;7.03;2.75;;;;;;;18.91;47.94;98573.50;4995971;28;20127;-73
2021/05/20 07:28:44;;;;;;;3.95;1.38;;;;;;;19.33;46.45;98573.66;5013320;28;20022;-77
2021/05/20 07:31:10;;;;;;;5.10;2.40;;;;;;;19.44;47.28;98576.41;5013776;28;20034;-77
2021/05/20 07:33:38;;;;;;;4.35;1.48;;;;;;;19.30;46.40;98578.13;4995864;28;20508;-78
2021/05/20 07:36:06;;;;;;;4.47;2.22;;;;;;;18.97;45.83;98576.72;5013660;28;20058;-78
2021/05/20 07:38:32;;;;;;;34.65;3.35;;;;;;;18.91;46.13;98579.16;5013671;28;20092;-73
2021/05/20 07:40:58;;;;;;;5.25;1.65;;;;;;;18.66;45.68;98572.41;4995613;28;20483;-78
2021/05/20 07:43:24;;;;;;;3.85;1.63;;;;;;;18.57;46.23;98582.56;4995570;28;20034;-74
2021/05/20 07:45:51;;;;;;;2.53;1.23;;;;;;;18.53;46.22;98576.91;5012784;28;20033;-73
2021/05/20 07:48:17;;;;;;;12.10;1.85;;;;;;;18.55;45.88;98568.81;4995437;28;20038;-77
2021/05/20 07:50:43;;;;;;;5.20;1.98;;;;;;;18.82;46.65;98582.44;4995088;28;20037;-77
2021/05/20 07:53:11;;;;;;;17.02;2.15;;;;;;;19.20;45.29;98579.81;5013235;28;20443;-78
2021/05/20 07:55:37;;;;;;;5.80;1.13;;;;;;;18.88;42.98;98592.13;4995513;28;20030;-74
2021/05/20 07:58:04;;;;;;;3.60;0.70;;;;;;;18.89;42.24;98590.13;5011747;28;20041;-77
2021/05/20 08:00:31;;;;;;;5.13;0.73;;;;;;;18.76;43.17;98590.59;5012787;28;20033;-76
2021/05/20 08:03:22;;;;;;;1.95;0.85;;;;;;;19.07;43.12;98610.66;5012803;28;20036;-74
2021/05/20 08:08:45;;;;;;;10.85;1.42;;;;;;;18.62;44.25;98613.28;5012824;28;20042;-74
2021/05/20 08:11:11;;;;;;;2.90;1.17;;;;;;;18.68;43.53;98611.66;5012418;28;20036;-76
2021/05/20 08:13:36;;;;;;;8.85;1.27;;;;;;;18.70;42.83;98626.22;5012411;28;20042;-73
2021/05/20 08:16:02;;;;;;;7.60;0.65;;;;;;;18.88;41.43;98631.78;5012445;28;20502;-73
2021/05/20 08:18:29;;;;;;;7.20;0.60;;;;;;;18.71;43.08;98627.81;5012348;28;20069;-77
2021/05/20 08:20:56;;;;;;;7.47;0.68;;;;;;;18.70;43.19;98637.53;4995021;28;20037;-74
2021/05/20 08:23:22;;;;;;;1.30;0.40;;;;;;;18.38;43.22;98633.59;4994657;28;20034;-76
2021/05/20 08:25:48;;;;;;;15.68;0.63;;;;;;;18.47;43.81;98629.53;5012700;28;20022;-76
2021/05/20 08:28:14;;;;;;;6.68;0.60;;;;;;;18.87;41.97;98655.69;4994675;28;20041;-73
2021/05/20 08:30:40;;;;;;;9.40;0.60;;;;;;;18.66;42.88;98643.22;4994721;28;20116;-73
2021/05/20 08:33:06;;;;;;;3.08;0.80;;;;;;;18.62;41.68;98647.25;5012203;28;20038;-73
2021/05/20 08:35:32;;;;;;;2.63;0.30;;;;;;;18.65;41.64;98652.91;4994534;28;20121;-75
2021/05/20 08:37:57;;;;;;;3.60;0.47;;;;;;;18.76;40.81;98658.56;5012156;28;20503;-76
2021/05/20 08:40:23;;;;;;;8.00;0.73;;;;;;;18.76;38.91;98666.25;4994407;28;20033;-73
2021/05/20 08:42:49;;;;;;;12.10;1.02;;;;;;;18.59;39.46;98676.41;5012118;28;20496;-73
2021/05/20 08:45:26;;;;;;;0.65;0.40;;;;;;;18.42;40.85;98676.06;5012061;28;20061;-73
2021/05/20 08:47:52;;;;;;;13.05;0.98;;;;;;;18.48;39.49;98670.78;5012022;28;20104;-73
2021/05/20 08:50:22;;;;;;;6.82;0.77;;;;;;;18.40;39.28;98689.78;5012109;28;20049;-76
2021/05/20 08:52:48;;;;;;;6.53;0.98;;;;;;;18.17;40.58;98696.72;5011950;28;20092;-75
2021/05/20 08:55:17;;;;;;;4.90;0.40;;;;;;;18.15;41.35;98704.00;5012070;28;20057;-76
2021/05/20 08:57:43;;;;;;;1.52;0.20;;;;;;;17.96;40.60;98708.81;4994075;28;20045;-76
2021/05/20 09:00:20;;;;;;;0.20;0.20;;;;;;;17.87;41.10;98706.38;5011892;28;20030;-73
2021/05/20 09:02:46;;;;;;;1.48;0.30;;;;;;;17.72;41.52;98722.53;5011536;28;20026;-73
2021/05/20 09:05:20;;;;;;;3.05;0.60;;;;;;;17.59;42.00;98732.59;5011853;28;20415;-73
2021/05/20 09:07:48;;;;;;;1.48;0.50;;;;;;;17.61;42.40;98733.00;4993742;28;20050;-71
2021/05/20 09:10:23;;;;;;;4.57;0.82;;;;;;;17.48;43.61;98741.88;5011485;28;20034;-70
2021/05/20 09:13:02;;;;;;;2.75;0.60;;;;;;;17.54;43.07;98751.59;4993864;28;20036;-74
2021/05/20 09:15:29;;;;;;;10.85;1.63;;;;;;;17.58;43.76;98750.78;4968848;28;20125;-74
2021/05/20 09:18:26;;;;;;;3.10;0.60;;;;;;;17.42;45.26;98754.78;5011497;28;20044;-71
2021/05/20 09:20:54;;;;;;;4.53;0.50;;;;;;;17.53;45.12;98747.16;4989973;28;20038;-74
2021/05/20 09:23:30;;;;;;;4.65;2.15;;;;;;;17.44;46.26;98745.91;5008521;28;20038;-72
2021/05/20 09:26:11;;;;;;;3.42;0.80;;;;;;;17.22;47.60;98757.94;4987230;28;20038;-73
2021/05/20 09:28:40;;;;;;;2.85;0.57;;;;;;;17.02;48.40;98759.50;4993250;28;20041;-74
2021/05/20 09:31:06;;;;;;;2.25;1.15;;;;;;;16.83;50.83;98767.00;4979484;28;20491;-72
2021/05/20 09:33:32;;;;;;;2.30;0.60;;;;;;;16.83;48.84;98758.53;5006560;28;20519;-74
2021/05/20 09:35:58;;;;;;;2.40;0.73;;;;;;;16.88;49.00;98758.16;4985267;28;20041;-74
2021/05/20 09:38:25;;;;;;;2.08;0.43;;;;;;;16.98;46.70;98757.41;4974686;28;20026;-75
2021/05/20 09:40:55;;;;;;;2.90;0.60;;;;;;;17.06;45.72;98758.28;4997534;28;20042;-74
2021/05/20 09:43:23;;;;;;;0.30;0.30;;;;;;;17.15;43.71;98757.94;4993764;28;20132;-74
2021/05/20 09:45:51;;;;;;;2.08;0.47;;;;;;;17.26;44.15;98753.13;4993053;28;20029;-74
2021/05/20 09:48:18;;;;;;;2.90;0.93;;;;;;;17.56;42.56;98742.72;4993232;28;20430;-73
2021/05/20 09:50:48;;;;;;;1.40;0.50;;;;;;;17.73;43.12;98755.25;4993003;28;20522;-73
2021/05/20 09:53:15;;;;;;;12.30;0.82;;;;;;;17.90;41.69;98747.22;5004440;28;20038;-73
2021/05/20 09:55:52;;;;;;;0.80;0.55;;;;;;;17.97;41.97;98744.38;5010946;28;20059;-75
2021/05/20 09:58:19;;;;;;;1.95;0.40;;;;;;;18.22;42.71;98750.06;5010930;28;20511;-73
2021/05/20 10:00:44;;;;;;;1.02;0.60;;;;;;;18.50;41.42;98733.47;5010738;28;20033;-74
2021/05/20 10:03:14;;;;;;;0.60;0.47;;;;;;;18.48;41.02;98741.56;4973811;28;20042;-73
2021/05/20 10:05:42;;;;;;;1.70;0.70;;;;;;;18.32;41.06;98737.13;4991333;28;20520;-75
2021/05/20 10:08:10;;;;;;;1.40;0.57;;;;;;;18.13;40.16;98749.66;4990450;28;20078;-73
2021/05/20 10:10:42;;;;;;;2.30;0.40;;;;;;;18.22;40.35;98744.41;4991228;28;20030;-71
2021/05/20 10:13:13;;;;;;;1.75;0.85;;;;;;;18.22;40.03;98747.25;4990844;28;20027;-72
2021/05/20 10:15:40;;;;;;;3.72;0.90;;;;;;;18.35;39.11;98739.16;4990829;28;20104;-70
2021/05/20 10:18:11;;;;;;;0.40;0.40;;;;;;;18.39;38.61;98747.63;4990953;28;20167;-77
2021/05/20 10:20:39;;;;;;;1.38;0.63;;;;;;;18.27;39.56;98742.38;4990439;28;20034;-71
2021/05/20 10:23:13;;;;;;;1.00;0.85;;;;;;;18.53;39.93;98741.16;4979675;28;20027;-71
2021/05/20 10:25:40;;;;;;;0.80;0.40;;;;;;;18.42;40.39;98741.16;4985524;28;20031;-71
2021/05/20 10:28:07;;;;;;;0.95;0.50;;;;;;;18.59;41.49;98738.72;4990227;28;20085;-72
2021/05/20 10:30:34;;;;;;;3.22;0.57;;;;;;;19.05;41.23;98736.97;4988314;28;20030;-70
2021/05/20 10:33:00;;;;;;;0.40;0.40;;;;;;;19.55;40.24;98733.09;4973087;28;20109;-71
2021/05/20 10:35:47;;;;;;;5.22;0.80;;;;;;;19.85;39.70;98734.53;4990676;28;20046;-71
2021/05/20 10:38:37;;;;;;;0.55;0.55;;;;;;;20.09;37.81;98737.63;4963743;28;20022;-71
2021/05/20 10:41:06;;;;;;;0.63;0.40;;;;;;;20.27;37.87;98746.00;4985252;28;20459;-71
2021/05/20 10:43:32;;;;;;;0.38;0.38;;;;;;;20.45;37.58;98757.19;4983001;28;20034;-72
2021/05/20 10:46:00;;;;;;;0.60;0.40;;;;;;;20.51;37.72;98751.84;4972586;28;20053;-72
2021/05/20 10:48:27;;;;;;;1.42;0.40;;;;;;;20.19;37.16;98750.91;4990612;28;20165;-73
2021/05/20 10:50:53;;;;;;;0.88;0.40;;;;;;;20.31;38.10;98738.25;4990250;28;20038;-72
2021/05/20 10:53:37;;;;;;;2.50;0.80;;;;;;;20.56;37.27;98737.19;4990333;28;20023;-72
2021/05/20 10:56:23;;;;;;;1.40;0.50;;;;;;;21.04;36.61;98723.31;4972749;28;20537;-72
2021/05/20 10:58:50;;;;;;;1.00;0.75;;;;;;;21.13;36.89;98734.16;4976282;28;20519;-72
2021/05/20 11:01:24;;;;;;;1.77;0.93;;;;;;;21.18;36.21;98725.97;4990549;28;20034;-72
2021/05/20 11:04:05;;;;;;;4.15;0.40;;;;;;;20.75;36.52;98718.72;4989949;28;20034;-72
2021/05/20 11:06:37;;;;;;;0.60;0.60;;;;;;;20.94;36.51;98710.03;4989863;28;20058;-72
2021/05/20 11:09:13;;;;;;;0.40;0.40;;;;;;;21.14;35.22;98713.84;4990327;28;20069;-72
2021/05/20 11:11:38;;;;;;;4.47;0.50;;;;;;;21.15;35.54;98706.91;4989957;28;20117;-72
2021/05/20 11:14:26;;;;;;;3.15;0.60;;;;;;;20.89;36.74;98714.13;4982199;28;20117;-72
2021/05/20 11:16:52;;;;;;;2.30;0.40;;;;;;;21.11;35.47;98708.97;4977519;28;20442;-73
2021/05/20 11:19:23;;;;;;;2.67;0.47;;;;;;;21.40;33.33;98707.78;4989785;28;20033;-72
2021/05/20 11:22:01;;;;;;;0.60;0.50;;;;;;;20.86;33.98;98701.56;4989927;28;20053;-72
2021/05/20 11:24:41;;;;;;;2.78;0.50;;;;;;;21.11;33.99;98689.09;4976750;28;20125;-73
2021/05/20 11:27:09;;;;;;;1.90;0.93;;;;;;;21.04;33.29;98700.56;4990142;28;20483;-73
2021/05/20 11:29:37;;;;;;;1.63;0.85;;;;;;;21.00;33.69;98705.50;4990140;28;20038;-73
2021/05/20 11:32:28;;;;;;;3.28;1.02;;;;;;;21.14;32.14;98698.81;4991194;28;20496;-73
2021/05/20 11:37:38;;;;;;;1.30;0.70;;;;;;;20.92;33.43;98709.66;4993586;28;20496;-74
2021/05/20 11:40:24;;;;;;;0.50;0.50;;;;;;;20.80;33.56;98703.25;4993881;28;20062;-72
2021/05/20 11:42:49;;;;;;;5.22;0.88;;;;;;;20.90;33.91;98702.34;4982718;28;20090;-73